createdAt,value
2019-01-06T00:01:07.967Z,3.40
2019-01-06T00:02:33.299Z,3.40
2019-01-06T00:03:56.276Z,3.40
2019-01-06T00:05:20.430Z,3.40
2019-01-06T00:06:43.462Z,3.40
2019-01-06T00:08:05.645Z,3.50
2019-01-06T00:09:27.852Z,3.50
2019-01-06T00:10:50.216Z,3.50
2019-01-06T00:12:05.763Z,3.50
2019-01-06T00:13:35.610Z,3.50
2019-01-06T00:14:51.449Z,3.50
2019-01-06T00:16:13.994Z,3.50
2019-01-06T00:17:39.258Z,3.50
2019-01-06T00:19:06.201Z,3.40
2019-01-06T00:20:42.679Z,3.40
2019-01-06T00:22:05.197Z,3.40
2019-01-06T00:23:42.826Z,3.40
2019-01-06T00:25:05.114Z,3.40
2019-01-06T00:26:26.869Z,3.40
2019-01-06T00:27:49.336Z,3.40
2019-01-06T00:29:22.930Z,3.40
2019-01-06T00:30:40.661Z,3.40
2019-01-06T00:31:54.423Z,3.40
2019-01-06T00:33:16.650Z,3.40
2019-01-06T00:34:39.019Z,3.40
2019-01-06T00:36:05.602Z,3.40
2019-01-06T00:37:36.410Z,3.40
2019-01-06T00:39:02.859Z,3.40
2019-01-06T00:40:25.355Z,3.40
2019-01-06T00:41:47.807Z,3.40
2019-01-06T00:43:29.596Z,3.40
2019-01-06T00:44:55.929Z,3.40
2019-01-06T00:46:17.973Z,3.40
2019-01-06T00:47:41.890Z,3.30
2019-01-06T00:49:03.938Z,3.30
2019-01-06T00:50:26.713Z,3.30
2019-01-06T00:51:49.120Z,3.30
2019-01-06T00:53:11.350Z,3.30
2019-01-06T00:54:28.384Z,3.30
2019-01-06T00:55:50.717Z,3.20
2019-01-06T00:57:29.266Z,3.20
2019-01-06T00:58:46.727Z,3.10
2019-01-06T01:00:10.804Z,3.10
2019-01-06T01:01:33.321Z,3.10
2019-01-06T01:02:51.779Z,3.10
2019-01-06T01:04:14.291Z,3.00
2019-01-06T01:05:55.809Z,3.10
2019-01-06T01:07:18.946Z,3.00
2019-01-06T01:08:36.365Z,3.00
2019-01-06T01:09:58.733Z,3.00
2019-01-06T01:11:22.431Z,3.00
2019-01-06T01:12:46.134Z,3.00
2019-01-06T01:14:08.276Z,3.00
2019-01-06T01:15:30.482Z,3.00
2019-01-06T01:16:50.259Z,3.00
2019-01-06T01:18:16.701Z,2.90
2019-01-06T01:19:33.151Z,2.90
2019-01-06T01:20:48.197Z,2.80
2019-01-06T01:22:10.499Z,2.80
2019-01-06T01:23:32.935Z,2.80
2019-01-06T01:24:59.679Z,2.80
2019-01-06T01:26:33.751Z,2.70
2019-01-06T01:27:56.185Z,2.70
2019-01-06T01:29:22.708Z,2.60
2019-01-06T01:30:44.754Z,2.60
2019-01-06T01:32:07.723Z,2.60
2019-01-06T01:33:31.397Z,2.50
2019-01-06T01:34:52.157Z,2.50
2019-01-06T01:36:25.134Z,2.50
2019-01-06T01:37:42.150Z,2.50
2019-01-06T01:39:04.412Z,2.50
2019-01-06T01:40:31.138Z,2.50
2019-01-06T01:41:46.543Z,2.50
2019-01-06T01:43:08.887Z,2.50
2019-01-06T01:44:44.953Z,2.50
2019-01-06T01:46:10.183Z,2.60
2019-01-06T01:47:26.928Z,2.60
2019-01-06T01:48:49.150Z,2.60
2019-01-06T01:50:24.764Z,2.60
2019-01-06T01:51:47.242Z,2.50
2019-01-06T01:53:10.948Z,2.50
2019-01-06T01:54:41.308Z,2.50
2019-01-06T01:56:10.787Z,2.50
2019-01-06T01:57:33.266Z,2.50
2019-01-06T01:59:05.147Z,2.50
2019-01-06T02:00:29.839Z,2.50
2019-01-06T02:02:08.775Z,2.40
2019-01-06T02:03:37.795Z,2.40
2019-01-06T02:04:59.919Z,2.40
2019-01-06T02:06:38.626Z,2.50
2019-01-06T02:08:00.847Z,2.50
2019-01-06T02:09:24.956Z,2.50
2019-01-06T02:11:03.615Z,2.50
2019-01-06T02:12:15.729Z,2.50
2019-01-06T02:13:36.039Z,2.50
2019-01-06T02:15:07.894Z,2.50
2019-01-06T02:16:25.256Z,2.50
2019-01-06T02:17:53.541Z,2.50
2019-01-06T02:19:23.234Z,2.50
2019-01-06T02:20:55.275Z,2.50
2019-01-06T02:22:20.764Z,2.50
2019-01-06T02:23:52.414Z,2.50
2019-01-06T02:25:19.210Z,2.50
2019-01-06T02:26:41.602Z,2.50
2019-01-06T02:28:03.895Z,2.50
2019-01-06T02:29:26.116Z,2.50
2019-01-06T02:30:49.804Z,2.50
2019-01-06T02:32:22.477Z,2.50
2019-01-06T02:33:46.126Z,2.50
2019-01-06T02:35:03.655Z,2.50
2019-01-06T02:36:27.513Z,2.50
2019-01-06T02:37:49.645Z,2.50
2019-01-06T02:39:09.203Z,2.50
2019-01-06T02:40:34.474Z,2.50
2019-01-06T02:41:50.945Z,2.40
2019-01-06T02:43:29.472Z,2.40
2019-01-06T02:44:51.465Z,2.40
2019-01-06T02:46:30.198Z,2.40
2019-01-06T02:47:51.730Z,2.40
2019-01-06T02:49:15.479Z,2.40
2019-01-06T02:50:31.498Z,2.40
2019-01-06T02:51:55.185Z,2.30
2019-01-06T02:53:14.396Z,2.30
2019-01-06T02:54:34.862Z,2.30
2019-01-06T02:55:57.261Z,2.30
2019-01-06T02:57:13.607Z,2.30
2019-01-06T02:58:32.761Z,2.30
2019-01-06T03:00:06.487Z,2.30
2019-01-06T03:01:31.755Z,2.30
2019-01-06T03:03:04.621Z,2.20
2019-01-06T03:04:31.033Z,2.20
2019-01-06T03:05:47.139Z,2.20
2019-01-06T03:07:16.823Z,2.30
2019-01-06T03:08:50.388Z,2.30
2019-01-06T03:10:15.217Z,2.30
2019-01-06T03:11:37.386Z,2.30
2019-01-06T03:13:04.643Z,2.30
2019-01-06T03:14:36.597Z,2.40
2019-01-06T03:15:59.094Z,2.40
2019-01-06T03:17:22.814Z,2.40
2019-01-06T03:18:36.956Z,2.40
2019-01-06T03:19:59.335Z,2.40
2019-01-06T03:21:24.071Z,2.40
2019-01-06T03:22:46.609Z,2.40
2019-01-06T03:24:13.056Z,2.40
2019-01-06T03:25:41.780Z,2.40
2019-01-06T03:26:53.682Z,2.40
2019-01-06T03:28:20.232Z,2.40
2019-01-06T03:29:47.072Z,2.40
2019-01-06T03:31:13.214Z,2.40
2019-01-06T03:32:35.494Z,2.40
2019-01-06T03:33:57.675Z,2.40
2019-01-06T03:35:15.310Z,2.40
2019-01-06T03:36:40.667Z,2.50
2019-01-06T03:38:16.647Z,2.50
2019-01-06T03:39:51.197Z,2.50
2019-01-06T03:41:04.808Z,2.50
2019-01-06T03:42:27.134Z,2.50
2019-01-06T03:43:53.931Z,2.50
2019-01-06T03:45:17.629Z,2.50
2019-01-06T03:46:46.883Z,2.40
2019-01-06T03:48:17.143Z,2.50
2019-01-06T03:49:39.331Z,2.40
2019-01-06T03:51:10.377Z,2.40
2019-01-06T03:52:34.319Z,2.40
2019-01-06T03:53:49.546Z,2.40
2019-01-06T03:55:07.133Z,2.40
2019-01-06T03:56:46.038Z,2.40
2019-01-06T03:58:08.519Z,2.40
2019-01-06T03:59:23.523Z,2.40
2019-01-06T04:00:45.755Z,2.30
2019-01-06T04:02:09.461Z,2.30
2019-01-06T04:03:35.677Z,2.30
2019-01-06T04:05:01.728Z,2.30
2019-01-06T04:06:23.510Z,2.40
2019-01-06T04:07:39.291Z,2.40
2019-01-06T04:09:01.990Z,2.40
2019-01-06T04:10:25.546Z,2.40
2019-01-06T04:11:47.679Z,2.30
2019-01-06T04:13:14.194Z,2.40
2019-01-06T04:14:36.240Z,2.40
2019-01-06T04:15:54.505Z,2.30
2019-01-06T04:17:16.633Z,2.30
2019-01-06T04:18:35.616Z,2.30
2019-01-06T04:20:02.522Z,2.30
2019-01-06T04:21:24.638Z,2.30
2019-01-06T04:23:01.555Z,2.30
2019-01-06T04:24:29.835Z,2.30
2019-01-06T04:25:52.021Z,2.30
2019-01-06T04:27:20.020Z,2.30
2019-01-06T04:28:36.932Z,2.30
2019-01-06T04:29:59.281Z,2.30
2019-01-06T04:31:21.824Z,2.40
2019-01-06T04:32:40.154Z,2.40
2019-01-06T04:34:02.327Z,2.40
2019-01-06T04:35:25.175Z,2.40
2019-01-06T04:36:47.336Z,2.30
2019-01-06T04:38:11.174Z,2.30
2019-01-06T04:39:43.835Z,2.30
2019-01-06T04:41:12.163Z,2.30
2019-01-06T04:42:31.423Z,2.30
2019-01-06T04:43:53.557Z,2.30
2019-01-06T04:45:22.835Z,2.30
2019-01-06T04:46:42.942Z,2.20
2019-01-06T04:48:09.355Z,2.20
2019-01-06T04:49:31.990Z,2.20
2019-01-06T04:51:04.663Z,2.20
2019-01-06T04:52:26.461Z,2.10
2019-01-06T04:53:46.692Z,2.10
2019-01-06T04:55:09.545Z,2.10
2019-01-06T04:56:47.920Z,2.10
2019-01-06T04:58:10.261Z,2.00
2019-01-06T04:59:32.769Z,2.00
2019-01-06T05:00:59.595Z,2.00
2019-01-06T05:02:22.099Z,2.00
2019-01-06T05:03:44.439Z,1.90
2019-01-06T05:05:09.838Z,1.90
2019-01-06T05:06:32.240Z,1.90
2019-01-06T05:07:47.514Z,1.90
2019-01-06T05:09:09.739Z,1.80
2019-01-06T05:10:29.594Z,1.80
2019-01-06T05:11:41.911Z,1.80
2019-01-06T05:13:14.878Z,1.80
2019-01-06T05:14:43.656Z,1.70
2019-01-06T05:16:07.607Z,1.70
2019-01-06T05:17:35.983Z,1.70
2019-01-06T05:18:49.871Z,1.70
2019-01-06T05:20:12.734Z,1.70
2019-01-06T05:21:30.953Z,1.70
2019-01-06T05:22:58.360Z,1.60
2019-01-06T05:24:18.538Z,1.60
2019-01-06T05:25:48.137Z,1.70
2019-01-06T05:27:06.115Z,1.60
2019-01-06T05:28:35.248Z,1.60
2019-01-06T05:29:57.399Z,1.60
2019-01-06T05:31:13.576Z,1.60
2019-01-06T05:32:29.446Z,1.60
2019-01-06T05:34:00.223Z,1.60
2019-01-06T05:35:22.493Z,1.60
2019-01-06T05:36:46.061Z,1.70
2019-01-06T05:38:10.096Z,1.70
2019-01-06T05:39:32.485Z,1.60
2019-01-06T05:40:51.254Z,1.70
2019-01-06T05:42:13.664Z,1.70
2019-01-06T05:43:34.771Z,1.70
2019-01-06T05:44:48.258Z,1.70
2019-01-06T05:46:10.747Z,1.70
2019-01-06T05:47:40.197Z,1.70
2019-01-06T05:49:08.711Z,1.80
2019-01-06T05:50:41.499Z,1.80
2019-01-06T05:52:20.479Z,1.80
2019-01-06T05:53:42.663Z,1.80
2019-01-06T05:55:05.024Z,1.80
2019-01-06T05:56:35.383Z,1.80
2019-01-06T05:57:58.434Z,1.90
2019-01-06T05:59:20.776Z,1.90
2019-01-06T06:00:43.147Z,1.90
2019-01-06T06:02:01.194Z,1.90
2019-01-06T06:03:16.834Z,1.90
2019-01-06T06:04:41.182Z,1.90
2019-01-06T06:06:06.836Z,1.90
2019-01-06T06:07:33.462Z,1.90
2019-01-06T06:08:46.923Z,1.90
2019-01-06T06:10:04.530Z,1.90
2019-01-06T06:11:24.211Z,1.90
2019-01-06T06:12:47.940Z,1.90
2019-01-06T06:14:10.323Z,1.90
2019-01-06T06:15:32.681Z,1.90
2019-01-06T06:17:11.545Z,1.90
2019-01-06T06:18:40.942Z,2.00
2019-01-06T06:20:09.503Z,2.00
2019-01-06T06:21:25.522Z,2.00
2019-01-06T06:22:49.851Z,2.00
2019-01-06T06:24:17.816Z,2.00
2019-01-06T06:25:40.145Z,2.00
2019-01-06T06:27:09.656Z,2.00
2019-01-06T06:28:33.423Z,2.00
2019-01-06T06:30:12.130Z,2.00
2019-01-06T06:31:34.715Z,2.00
2019-01-06T06:33:01.548Z,2.00
2019-01-06T06:34:31.225Z,2.00
2019-01-06T06:35:50.423Z,2.00
2019-01-06T06:37:12.645Z,2.00
2019-01-06T06:38:45.206Z,2.00
2019-01-06T06:40:03.573Z,2.00
2019-01-06T06:41:33.157Z,2.00
2019-01-06T06:42:56.893Z,2.00
2019-01-06T06:44:19.248Z,2.00
2019-01-06T06:45:45.096Z,2.00
2019-01-06T06:47:07.441Z,1.90
2019-01-06T06:48:27.819Z,1.90
2019-01-06T06:49:58.912Z,1.90
2019-01-06T06:51:25.339Z,2.00
2019-01-06T06:52:39.515Z,2.00
2019-01-06T06:54:00.208Z,1.90
2019-01-06T06:55:22.683Z,1.90
2019-01-06T06:56:45.153Z,2.00
2019-01-06T06:58:37.204Z,2.00
2019-01-06T07:00:51.406Z,1.90
2019-01-06T07:02:53.519Z,1.90
2019-01-06T07:04:14.750Z,1.90
2019-01-06T07:05:27.522Z,1.90
2019-01-06T07:06:55.154Z,2.00
2019-01-06T07:08:13.062Z,2.00
2019-01-06T07:09:29.570Z,2.00
2019-01-06T07:10:56.215Z,2.00
2019-01-06T07:12:28.834Z,2.00
2019-01-06T07:13:54.570Z,2.00
2019-01-06T07:15:16.769Z,2.00
2019-01-06T07:17:11.615Z,2.00
2019-01-06T07:18:35.051Z,2.00
2019-01-06T07:19:56.720Z,2.00
2019-01-06T07:21:32.452Z,2.00
2019-01-06T07:22:54.118Z,2.00
2019-01-06T07:24:23.844Z,2.00
2019-01-06T07:25:52.235Z,2.00
2019-01-06T07:27:14.776Z,2.00
2019-01-06T07:28:36.129Z,2.00
2019-01-06T07:30:06.908Z,2.00
2019-01-06T07:31:33.474Z,2.00
2019-01-06T07:32:56.936Z,2.00
2019-01-06T07:34:17.859Z,2.00
2019-01-06T07:35:41.532Z,1.90
2019-01-06T07:37:03.845Z,1.90
2019-01-06T07:38:36.747Z,2.00
2019-01-06T07:39:58.764Z,2.00
2019-01-06T07:42:46.378Z,1.90
2019-01-06T07:44:21.668Z,1.90
2019-01-06T07:45:57.181Z,2.00
2019-01-06T07:47:32.647Z,1.90
2019-01-06T07:49:08.094Z,1.90
2019-01-06T07:50:45.437Z,1.90
2019-01-06T07:52:27.455Z,2.00
2019-01-06T07:53:58.227Z,2.00
2019-01-06T07:55:33.231Z,2.00
2019-01-06T07:57:09.465Z,2.00
2019-01-06T07:58:47.982Z,2.00
2019-01-06T08:00:23.562Z,2.00
2019-01-06T08:01:57.828Z,2.10
2019-01-06T08:03:34.449Z,2.00
2019-01-06T08:05:10.279Z,2.00
2019-01-06T08:08:27.793Z,2.00
2019-01-06T08:09:59.295Z,2.00
2019-01-06T08:11:35.032Z,2.10
2019-01-06T08:13:10.622Z,2.10
2019-01-06T08:14:46.162Z,2.10
2019-01-06T08:16:17.452Z,2.10
2019-01-06T08:17:54.501Z,2.10
2019-01-06T08:19:29.638Z,2.10
2019-01-06T08:20:53.114Z,2.10
2019-01-06T08:22:32.421Z,2.10
2019-01-06T08:24:07.898Z,2.10
2019-01-06T08:25:43.396Z,2.20
2019-01-06T08:27:25.133Z,2.20
2019-01-06T08:29:01.286Z,2.30
2019-01-06T08:30:35.216Z,2.30
2019-01-06T08:32:03.537Z,2.30
2019-01-06T08:33:39.289Z,2.30
2019-01-06T08:35:14.840Z,2.30
2019-01-06T08:36:50.205Z,2.40
2019-01-06T08:38:25.906Z,2.40
2019-01-06T08:40:04.941Z,2.40
2019-01-06T08:43:18.520Z,2.60
2019-01-06T08:44:55.862Z,2.70
2019-01-06T08:46:31.177Z,2.80
2019-01-06T08:48:07.624Z,2.90
2019-01-06T08:49:41.734Z,3.00
2019-01-06T08:51:17.962Z,3.00
2019-01-06T08:52:41.679Z,3.00
2019-01-06T08:54:24.623Z,3.10
2019-01-06T08:56:00.461Z,3.10
2019-01-06T08:57:35.561Z,3.10
2019-01-06T08:59:03.601Z,3.20
2019-01-06T09:00:39.521Z,3.10
2019-01-06T09:02:15.038Z,3.10
2019-01-06T09:03:50.853Z,3.10
2019-01-06T09:05:20.904Z,3.10
2019-01-06T09:06:56.284Z,3.10
2019-01-06T09:08:31.746Z,3.10
2019-01-06T09:10:05.248Z,3.10
2019-01-06T09:11:40.949Z,3.10
2019-01-06T09:14:51.679Z,3.10
2019-01-06T09:16:30.375Z,3.10
2019-01-06T09:18:20.871Z,3.10
2019-01-06T09:19:51.812Z,3.00
2019-01-06T09:21:33.416Z,3.00
2019-01-06T09:23:09.711Z,3.00
2019-01-06T09:24:44.449Z,3.00
2019-01-06T09:26:20.636Z,3.10
2019-01-06T09:27:52.651Z,3.10
2019-01-06T09:29:32.428Z,3.10
2019-01-06T09:31:07.892Z,3.20
2019-01-06T09:32:42.888Z,3.20
2019-01-06T09:34:19.044Z,3.30
2019-01-06T09:37:28.606Z,3.20
2019-01-06T09:39:04.233Z,3.20
2019-01-06T09:42:17.839Z,3.20
2019-01-06T09:43:47.800Z,3.20
2019-01-06T09:45:23.085Z,3.30
2019-01-06T09:48:45.206Z,3.30
2019-01-06T09:50:20.727Z,3.30
2019-01-06T09:51:58.921Z,3.40
2019-01-06T09:53:32.236Z,3.50
2019-01-06T09:55:07.783Z,3.50
2019-01-06T09:58:20.775Z,3.50
2019-01-06T09:59:38.758Z,3.50
2019-01-06T10:01:14.677Z,3.40
2019-01-06T10:02:49.879Z,3.40
2019-01-06T10:04:25.713Z,3.40
2019-01-06T10:09:14.508Z,3.40
2019-01-06T10:10:57.427Z,3.40
2019-01-06T10:12:33.679Z,3.40
2019-01-06T10:14:07.996Z,3.40
2019-01-06T10:15:42.823Z,3.40
2019-01-06T10:17:19.027Z,3.40
2019-01-06T10:18:54.615Z,3.40
2019-01-06T10:20:33.046Z,3.40
2019-01-06T10:22:08.593Z,3.30
2019-01-06T10:23:40.825Z,3.30
2019-01-06T10:25:16.330Z,3.40
2019-01-06T10:26:52.212Z,3.40
2019-01-06T10:28:30.018Z,3.40
2019-01-06T10:30:05.782Z,3.40
2019-01-06T10:31:41.426Z,3.50
2019-01-06T10:33:17.660Z,3.50
2019-01-06T10:34:48.807Z,3.60
2019-01-06T10:36:24.171Z,3.60
2019-01-06T10:37:54.967Z,3.60
2019-01-06T10:39:20.720Z,3.60
2019-01-06T10:42:27.937Z,3.60
2019-01-06T10:43:58.942Z,3.60
2019-01-06T10:45:34.541Z,3.70
2019-01-06T10:47:10.227Z,3.70
2019-01-06T10:48:46.514Z,3.70
2019-01-06T10:50:25.255Z,3.70
2019-01-06T10:51:53.474Z,3.80
2019-01-06T10:53:28.764Z,3.80
2019-01-06T10:55:04.860Z,3.90
2019-01-06T10:56:36.576Z,4.00
2019-01-06T10:58:12.713Z,4.00
2019-01-06T11:01:30.860Z,4.10
2019-01-06T11:03:06.504Z,4.10
2019-01-06T11:06:18.712Z,4.20
2019-01-06T11:07:54.870Z,4.20
2019-01-06T11:09:27.665Z,4.10
2019-01-06T11:11:03.423Z,4.00
2019-01-06T11:12:38.784Z,3.90
2019-01-06T11:14:14.450Z,3.90
2019-01-06T11:15:51.193Z,3.90
2019-01-06T11:19:08.581Z,4.00
2019-01-06T11:20:47.043Z,4.10
2019-01-06T11:22:23.208Z,4.10
2019-01-06T11:23:58.842Z,4.10
2019-01-06T11:25:35.022Z,4.10
2019-01-06T11:27:10.351Z,4.20
2019-01-06T11:30:25.677Z,4.30
2019-01-06T11:32:01.249Z,4.40
2019-01-06T11:33:43.024Z,4.40
2019-01-06T11:35:10.910Z,4.40
2019-01-06T11:36:52.435Z,4.50
2019-01-06T11:38:27.799Z,4.50
2019-01-06T11:40:04.111Z,4.50
2019-01-06T11:41:39.800Z,4.50
2019-01-06T11:43:18.443Z,4.60
2019-01-06T11:44:57.095Z,4.50
2019-01-06T11:46:32.594Z,4.50
2019-01-06T11:48:08.710Z,4.50
2019-01-06T11:49:32.377Z,4.40
2019-01-06T11:50:56.089Z,4.30
2019-01-06T11:52:39.038Z,4.30
2019-01-06T11:54:11.195Z,4.30
2019-01-06T11:55:46.889Z,4.30
2019-01-06T11:57:26.487Z,4.30
2019-01-06T11:58:53.100Z,4.30
2019-01-06T12:00:28.440Z,4.30
2019-01-06T12:02:03.797Z,4.20
2019-01-06T12:06:57.409Z,4.20
2019-01-06T12:08:40.667Z,4.20
2019-01-06T12:10:10.100Z,4.20
2019-01-06T12:11:51.929Z,4.10
2019-01-06T12:13:20.217Z,4.10
2019-01-06T12:14:58.641Z,4.10
2019-01-06T12:16:34.726Z,4.10
2019-01-06T12:18:08.203Z,4.10
2019-01-06T12:19:24.751Z,4.20
2019-01-06T12:20:57.288Z,4.20
2019-01-06T12:22:19.941Z,4.30
2019-01-06T12:23:42.633Z,4.30
2019-01-06T12:25:12.278Z,4.40
2019-01-06T12:26:48.173Z,4.40
2019-01-06T12:28:12.572Z,4.40
2019-01-06T12:29:42.164Z,4.40
2019-01-06T12:31:23.780Z,4.40
2019-01-06T12:32:45.251Z,4.40
2019-01-06T12:34:14.246Z,4.40
2019-01-06T12:35:36.724Z,4.40
2019-01-06T12:37:00.975Z,4.30
2019-01-06T12:38:38.080Z,4.30
2019-01-06T12:40:00.630Z,4.40
2019-01-06T12:41:21.881Z,4.40
2019-01-06T12:42:43.992Z,4.40
2019-01-06T12:44:16.663Z,4.40
2019-01-06T12:45:39.958Z,4.40
2019-01-06T12:47:02.334Z,4.30
2019-01-06T12:48:41.214Z,4.30
2019-01-06T12:49:59.391Z,4.20
2019-01-06T12:51:25.963Z,4.10
2019-01-06T12:52:48.312Z,4.10
2019-01-06T12:54:11.394Z,4.00
2019-01-06T12:55:23.938Z,4.10
2019-01-06T12:56:46.161Z,4.00
2019-01-06T12:58:08.636Z,4.00
2019-01-06T12:59:41.491Z,4.00
2019-01-06T13:01:14.713Z,3.90
2019-01-06T13:02:38.473Z,3.90
2019-01-06T13:04:13.883Z,3.90
2019-01-06T13:05:36.376Z,3.80
2019-01-06T13:06:58.535Z,3.80
2019-01-06T13:08:20.977Z,3.80
2019-01-06T13:09:47.223Z,3.80
2019-01-06T13:11:10.955Z,3.70
2019-01-06T13:12:52.526Z,3.70
2019-01-06T13:14:15.089Z,3.70
2019-01-06T13:15:41.580Z,3.70
2019-01-06T13:17:03.731Z,3.70
2019-01-06T13:18:25.904Z,3.70
2019-01-06T13:19:52.726Z,3.70
2019-01-06T13:21:14.938Z,3.70
2019-01-06T13:22:56.887Z,3.70
2019-01-06T13:24:30.377Z,3.70
2019-01-06T13:25:52.492Z,3.60
2019-01-06T13:27:14.903Z,3.60
2019-01-06T13:28:36.752Z,3.60
2019-01-06T13:30:06.405Z,3.60
2019-01-06T13:31:27.727Z,3.60
2019-01-06T13:32:58.897Z,3.60
2019-01-06T13:34:22.294Z,3.60
2019-01-06T13:35:55.598Z,3.60
2019-01-06T13:37:18.119Z,3.60
2019-01-06T13:38:36.267Z,3.70
2019-01-06T13:39:58.592Z,3.70
2019-01-06T13:41:20.776Z,3.70
2019-01-06T13:42:42.932Z,3.70
2019-01-06T13:44:00.147Z,3.70
2019-01-06T13:45:24.009Z,3.80
2019-01-06T13:46:47.156Z,3.70
2019-01-06T13:48:10.895Z,3.70
2019-01-06T13:49:34.146Z,3.70
2019-01-06T13:50:56.540Z,3.70
2019-01-06T13:52:29.541Z,3.70
2019-01-06T13:53:59.167Z,3.70
2019-01-06T13:55:21.411Z,3.70
2019-01-06T13:56:52.871Z,3.70
2019-01-06T13:58:15.083Z,3.70
2019-01-06T13:59:36.048Z,3.70
2019-01-06T14:00:52.381Z,3.70
2019-01-06T14:02:14.639Z,3.70
2019-01-06T14:03:32.142Z,3.60
2019-01-06T14:05:14.220Z,3.60
2019-01-06T14:06:36.779Z,3.60
2019-01-06T14:07:59.864Z,3.50
2019-01-06T14:09:23.375Z,3.50
2019-01-06T14:10:47.222Z,3.50
2019-01-06T14:12:13.863Z,3.50
2019-01-06T14:13:30.725Z,3.50
2019-01-06T14:14:57.393Z,3.60
2019-01-06T14:16:24.267Z,3.60
2019-01-06T14:17:49.883Z,3.50
2019-01-06T14:19:02.178Z,3.50
2019-01-06T14:20:32.029Z,3.60
2019-01-06T14:22:02.281Z,3.60
2019-01-06T14:23:24.565Z,3.60
2019-01-06T14:24:43.011Z,3.50
2019-01-06T14:26:05.428Z,3.50
2019-01-06T14:27:44.235Z,3.50
2019-01-06T14:29:06.819Z,3.50
2019-01-06T14:30:42.810Z,3.50
2019-01-06T14:32:15.255Z,3.50
2019-01-06T14:33:37.700Z,3.40
2019-01-06T14:35:10.580Z,3.40
2019-01-06T14:36:33.016Z,3.50
2019-01-06T14:37:49.088Z,3.40
2019-01-06T14:39:21.499Z,3.40
2019-01-06T14:40:42.907Z,3.40
2019-01-06T14:42:04.675Z,3.40
2019-01-06T14:43:27.271Z,3.40
2019-01-06T14:45:02.030Z,3.40
2019-01-06T14:46:44.038Z,3.40
2019-01-06T14:48:10.593Z,3.40
2019-01-06T14:49:48.243Z,3.40
2019-01-06T14:51:06.949Z,3.40
2019-01-06T14:52:30.678Z,3.30
2019-01-06T14:53:53.018Z,3.30
2019-01-06T14:55:14.262Z,3.30
2019-01-06T14:56:45.709Z,3.30
2019-01-06T14:58:17.234Z,3.30
2019-01-06T14:59:41.103Z,3.30
2019-01-06T15:01:17.378Z,3.20
2019-01-06T15:02:56.059Z,3.20
2019-01-06T15:04:18.021Z,3.20
2019-01-06T15:05:50.292Z,3.20
2019-01-06T15:07:12.727Z,3.20
2019-01-06T15:08:34.983Z,3.20
2019-01-06T15:09:57.592Z,3.10
2019-01-06T15:11:20.217Z,3.10
2019-01-06T15:12:49.792Z,3.10
2019-01-06T15:14:12.014Z,3.10
2019-01-06T15:15:35.305Z,3.00
2019-01-06T15:17:11.366Z,3.00
2019-01-06T15:18:34.700Z,3.00
2019-01-06T15:20:16.322Z,3.00
2019-01-06T15:21:38.518Z,3.00
2019-01-06T15:22:56.575Z,3.00
2019-01-06T15:24:17.223Z,2.90
2019-01-06T15:25:49.632Z,3.00
2019-01-06T15:27:12.002Z,3.00
2019-01-06T15:28:47.684Z,2.90
2019-01-06T15:30:17.379Z,2.90
2019-01-06T15:31:37.470Z,2.90
2019-01-06T15:33:01.406Z,2.80
2019-01-06T15:34:22.427Z,2.80
2019-01-06T15:35:38.698Z,2.80
2019-01-06T15:37:20.749Z,2.80
2019-01-06T15:38:48.566Z,2.80
2019-01-06T15:40:18.264Z,2.70
2019-01-06T15:41:41.295Z,2.70
2019-01-06T15:43:17.442Z,2.70
2019-01-06T15:44:39.765Z,2.60
2019-01-06T15:46:02.054Z,2.60
2019-01-06T15:47:22.902Z,2.60
2019-01-06T15:48:58.158Z,2.50
2019-01-06T15:50:24.075Z,2.50
2019-01-06T15:51:53.871Z,2.40
2019-01-06T15:53:16.119Z,2.40
2019-01-06T15:54:38.517Z,2.40
2019-01-06T15:56:11.422Z,2.40
2019-01-06T15:57:35.133Z,2.30
2019-01-06T15:59:17.108Z,2.30
2019-01-06T16:00:39.573Z,2.30
2019-01-06T16:02:01.904Z,2.20
2019-01-06T16:03:31.439Z,2.20
2019-01-06T16:04:59.538Z,2.20
2019-01-06T16:06:22.143Z,2.10
2019-01-06T16:07:44.632Z,2.10
2019-01-06T16:09:06.959Z,2.10
2019-01-06T16:10:29.490Z,2.10
2019-01-06T16:11:51.651Z,2.10
2019-01-06T16:13:19.021Z,2.10
2019-01-06T16:14:54.659Z,2.10
2019-01-06T16:16:29.270Z,2.10
2019-01-06T16:17:54.270Z,2.20
2019-01-06T16:19:12.367Z,2.20
2019-01-06T16:20:36.548Z,2.20
2019-01-06T16:21:56.749Z,2.20
2019-01-06T16:23:19.832Z,2.20
2019-01-06T16:24:46.614Z,2.30
2019-01-06T16:26:25.935Z,2.30
2019-01-06T16:27:45.769Z,2.30
2019-01-06T16:29:08.075Z,2.40
2019-01-06T16:30:34.586Z,2.40
2019-01-06T16:32:01.787Z,2.40
2019-01-06T16:33:23.883Z,2.40
2019-01-06T16:34:51.855Z,2.40
2019-01-06T16:36:17.467Z,2.40
2019-01-06T16:37:39.620Z,2.50
2019-01-06T16:39:21.324Z,2.40
2019-01-06T16:40:41.646Z,2.40
2019-01-06T16:42:11.173Z,2.40
2019-01-06T16:43:33.684Z,2.50
2019-01-06T16:44:56.220Z,2.40
2019-01-06T16:46:17.839Z,2.40
2019-01-06T16:47:51.018Z,2.40
2019-01-06T16:49:08.717Z,2.40
2019-01-06T16:50:39.287Z,2.40
2019-01-06T16:52:01.697Z,2.40
2019-01-06T16:53:34.509Z,2.40
2019-01-06T16:55:04.734Z,2.40
2019-01-06T16:56:27.690Z,2.40
2019-01-06T16:58:03.217Z,2.40
2019-01-06T16:59:25.610Z,2.50
2019-01-06T17:00:48.055Z,2.50
2019-01-06T17:02:19.777Z,2.40
2019-01-06T17:03:42.003Z,2.50
2019-01-06T17:05:04.308Z,2.40
2019-01-06T17:06:30.723Z,2.50
2019-01-06T17:07:53.398Z,2.50
2019-01-06T17:09:31.438Z,2.50
2019-01-06T17:11:01.063Z,2.50
2019-01-06T17:12:26.763Z,2.50
2019-01-06T17:13:59.683Z,2.50
2019-01-06T17:15:13.109Z,2.50
2019-01-06T17:16:35.367Z,2.50
2019-01-06T17:17:54.241Z,2.50
2019-01-06T17:19:26.727Z,2.60
2019-01-06T17:20:53.198Z,2.60
2019-01-06T17:22:12.025Z,2.60
2019-01-06T17:23:35.134Z,2.60
2019-01-06T17:24:57.351Z,2.50
2019-01-06T17:26:20.146Z,2.60
2019-01-06T17:27:53.134Z,2.60
2019-01-06T17:29:26.823Z,2.60
2019-01-06T17:30:47.844Z,2.60
2019-01-06T17:32:12.315Z,2.50
2019-01-06T17:33:35.980Z,2.60
2019-01-06T17:34:58.296Z,2.60
2019-01-06T17:36:25.843Z,2.60
2019-01-06T17:37:48.141Z,2.60
2019-01-06T17:39:10.687Z,2.60
2019-01-06T17:40:33.171Z,2.60
2019-01-06T17:41:55.330Z,2.60
2019-01-06T17:43:16.739Z,2.70
2019-01-06T17:44:40.002Z,2.70
2019-01-06T17:46:04.065Z,2.70
2019-01-06T17:47:24.949Z,2.70
2019-01-06T17:49:03.713Z,2.60
2019-01-06T17:50:23.734Z,2.60
2019-01-06T17:51:59.644Z,2.60
2019-01-06T17:53:32.317Z,2.60
2019-01-06T17:55:01.917Z,2.60
2019-01-06T17:56:31.806Z,2.60
2019-01-06T17:58:07.595Z,2.60
2019-01-06T17:59:28.271Z,2.60
2019-01-06T18:00:59.033Z,2.60
2019-01-06T18:02:19.315Z,2.60
2019-01-06T18:03:53.278Z,2.70
2019-01-06T18:05:29.634Z,2.60
2019-01-06T18:06:55.152Z,2.60
2019-01-06T18:08:18.883Z,2.60
2019-01-06T18:09:43.840Z,2.60
2019-01-06T18:11:06.379Z,2.60
2019-01-06T18:12:28.263Z,2.60
2019-01-06T18:13:54.655Z,2.60
2019-01-06T18:15:24.629Z,2.60
2019-01-06T18:16:47.138Z,2.60
2019-01-06T18:18:07.197Z,2.60
2019-01-06T18:19:46.204Z,2.60
2019-01-06T18:21:11.699Z,2.60
2019-01-06T18:22:36.395Z,2.60
2019-01-06T18:24:00.615Z,2.60
2019-01-06T18:25:17.412Z,2.60
2019-01-06T18:26:41.176Z,2.60
2019-01-06T18:28:10.820Z,2.60
2019-01-06T18:29:32.254Z,2.60
2019-01-06T18:30:55.273Z,2.60
2019-01-06T18:32:13.679Z,2.60
2019-01-06T18:33:40.043Z,2.60
2019-01-06T18:35:12.756Z,2.60
2019-01-06T18:36:35.145Z,2.60
2019-01-06T18:37:58.907Z,2.50
2019-01-06T18:39:21.176Z,2.50
2019-01-06T18:40:43.705Z,2.50
2019-01-06T18:42:25.394Z,2.50
2019-01-06T18:43:49.250Z,2.60
2019-01-06T18:45:12.939Z,2.60
2019-01-06T18:46:39.522Z,2.60
2019-01-06T18:48:21.344Z,2.60
2019-01-06T18:49:47.224Z,2.60
2019-01-06T18:51:09.826Z,2.50
2019-01-06T18:52:44.059Z,2.60
2019-01-06T18:54:10.186Z,2.50
2019-01-06T18:55:44.627Z,2.50
2019-01-06T18:57:07.698Z,2.50
2019-01-06T18:58:31.674Z,2.60
2019-01-06T19:00:07.851Z,2.60
2019-01-06T19:01:30.622Z,2.60
2019-01-06T19:02:53.132Z,2.60
2019-01-06T19:04:22.972Z,2.60
2019-01-06T19:05:53.459Z,2.60
2019-01-06T19:07:08.898Z,2.60
2019-01-06T19:08:28.341Z,2.60
2019-01-06T19:10:02.539Z,2.60
2019-01-06T19:11:26.414Z,2.60
2019-01-06T19:12:47.304Z,2.60
2019-01-06T19:14:12.296Z,2.60
2019-01-06T19:15:30.710Z,2.60
2019-01-06T19:16:53.224Z,2.60
2019-01-06T19:18:15.359Z,2.60
2019-01-06T19:19:37.516Z,2.60
2019-01-06T19:21:15.198Z,2.60
2019-01-06T19:22:33.502Z,2.60
2019-01-06T19:23:56.061Z,2.60
2019-01-06T19:25:29.540Z,2.60
2019-01-06T19:27:07.526Z,2.60
2019-01-06T19:28:37.469Z,2.60
2019-01-06T19:29:57.521Z,2.60
2019-01-06T19:31:22.639Z,2.60
2019-01-06T19:32:45.131Z,2.60
2019-01-06T19:34:15.908Z,2.60
2019-01-06T19:35:43.740Z,2.60
2019-01-06T19:37:05.999Z,2.60
2019-01-06T19:38:25.580Z,2.60
2019-01-06T19:39:52.229Z,2.60
2019-01-06T19:41:30.974Z,2.60
2019-01-06T19:42:52.827Z,2.60
2019-01-06T19:44:24.106Z,2.60
2019-01-06T19:45:52.327Z,2.60
2019-01-06T19:47:19.873Z,2.60
2019-01-06T19:48:52.441Z,2.60
2019-01-06T19:50:14.461Z,2.60